sensor_id;sensor_type;location;lat;lon;timestamp;pressure;altitude;pressure_sealevel;temperature;humidity
66857;BME280;53766;50.280;19.160;2023-03-11T00:01:17;95832.38;;;17.94;45.62
66857;BME280;53766;50.280;19.160;2023-03-11T00:03:44;95842.25;;;17.93;45.43
66857;BME280;53766;50.280;19.160;2023-03-11T00:06:12;95831.59;;;17.93;45.49
66857;BME280;53766;50.280;19.160;2023-03-11T00:08:39;95828.94;;;17.93;45.53
66857;BME280;53766;50.280;19.160;2023-03-11T00:11:07;95832.66;;;17.92;45.52
66857;BME280;53766;50.280;19.160;2023-03-11T00:13:35;95822.00;;;17.92;45.51
66857;BME280;53766;50.280;19.160;2023-03-11T00:16:03;95831.59;;;17.93;45.49
66857;BME280;53766;50.280;19.160;2023-03-11T00:18:31;95835.34;;;17.92;45.50
66857;BME280;53766;50.280;19.160;2023-03-11T00:20:59;95831.59;;;17.93;45.46
66857;BME280;53766;50.280;19.160;2023-03-11T00:23:27;95828.94;;;17.93;45.49
66857;BME280;53766;50.280;19.160;2023-03-11T00:25:55;95834.25;;;17.93;45.83
66857;BME280;53766;50.280;19.160;2023-03-11T00:28:23;95840.66;;;17.92;45.62
66857;BME280;53766;50.280;19.160;2023-03-11T00:30:53;95834.25;;;17.93;45.45
66857;BME280;53766;50.280;19.160;2023-03-11T00:33:21;95824.69;;;17.92;45.59
66857;BME280;53766;50.280;19.160;2023-03-11T00:35:49;95830.00;;;17.92;45.51
66857;BME280;53766;50.280;19.160;2023-03-11T00:38:17;95824.69;;;17.92;45.51
66857;BME280;53766;50.280;19.160;2023-03-11T00:40:46;95820.16;;;17.93;45.57
66857;BME280;53766;50.280;19.160;2023-03-11T00:43:14;95813.22;;;17.92;45.55
66857;BME280;53766;50.280;19.160;2023-03-11T00:45:42;95813.22;;;17.92;45.45
66857;BME280;53766;50.280;19.160;2023-03-11T00:48:10;95814.81;;;17.93;45.56
66857;BME280;53766;50.280;19.160;2023-03-11T00:50:39;95813.22;;;17.92;45.50
66857;BME280;53766;50.280;19.160;2023-03-11T00:53:06;95810.81;;;17.90;45.54
66857;BME280;53766;50.280;19.160;2023-03-11T00:55:34;95816.69;;;17.92;45.65
66857;BME280;53766;50.280;19.160;2023-03-11T00:58:06;95817.75;;;17.91;45.63
66857;BME280;53766;50.280;19.160;2023-03-11T01:00:34;95818.53;;;17.92;45.51
66857;BME280;53766;50.280;19.160;2023-03-11T01:03:02;95821.47;;;17.90;45.34
66857;BME280;53766;50.280;19.160;2023-03-11T01:05:31;95820.66;;;17.89;45.57
66857;BME280;53766;50.280;19.160;2023-03-11T01:07:59;95815.34;;;17.89;45.60
66857;BME280;53766;50.280;19.160;2023-03-11T01:10:29;95821.47;;;17.90;45.60
66857;BME280;53766;50.280;19.160;2023-03-11T01:12:56;95810.00;;;17.89;45.53
66857;BME280;53766;50.280;19.160;2023-03-11T01:15:30;95800.19;;;17.90;45.65
66857;BME280;53766;50.280;19.160;2023-03-11T01:17:58;95805.50;;;17.90;45.48
66857;BME280;53766;50.280;19.160;2023-03-11T01:20:26;95809.22;;;17.89;45.55
66857;BME280;53766;50.280;19.160;2023-03-11T01:22:54;95806.56;;;17.89;45.71
66857;BME280;53766;50.280;19.160;2023-03-11T01:25:23;95806.00;;;17.87;45.58
66857;BME280;53766;50.280;19.160;2023-03-11T01:27:50;95811.88;;;17.89;45.60
66857;BME280;53766;50.280;19.160;2023-03-11T01:30:20;95807.63;;;17.88;45.65
66857;BME280;53766;50.280;19.160;2023-03-11T01:32:49;95814.53;;;17.89;45.76
66857;BME280;53766;50.280;19.160;2023-03-11T01:35:19;95814.53;;;17.89;45.38
66857;BME280;53766;50.280;19.160;2023-03-11T01:37:47;95818.28;;;17.88;45.57
66857;BME280;53766;50.280;19.160;2023-03-11T01:40:19;95811.34;;;17.87;45.68
66857;BME280;53766;50.280;19.160;2023-03-11T01:42:47;95812.94;;;17.88;45.71
66857;BME280;53766;50.280;19.160;2023-03-11T01:47:55;95815.88;;;17.86;45.67
66857;BME280;53766;50.280;19.160;2023-03-11T01:50:24;95802.31;;;17.88;45.59
66857;BME280;53766;50.280;19.160;2023-03-11T01:52:53;95822.25;;;17.85;45.55
66857;BME280;53766;50.280;19.160;2023-03-11T01:55:21;95804.44;;;17.86;45.49
66857;BME280;53766;50.280;19.160;2023-03-11T01:57:49;95806.00;;;17.87;45.58
66857;BME280;53766;50.280;19.160;2023-03-11T02:00:18;95799.09;;;17.86;45.47
66857;BME280;53766;50.280;19.160;2023-03-11T02:02:53;95799.09;;;17.86;45.46
66857;BME280;53766;50.280;19.160;2023-03-11T02:05:22;95793.78;;;17.86;45.42
66857;BME280;53766;50.280;19.160;2023-03-11T02:07:51;95804.44;;;17.86;45.39
66857;BME280;53766;50.280;19.160;2023-03-11T02:10:21;95802.81;;;17.85;45.41
66857;BME280;53766;50.280;19.160;2023-03-11T02:12:49;95806.56;;;17.84;45.36
66857;BME280;53766;50.280;19.160;2023-03-11T02:15:17;95807.34;;;17.84;45.48
66857;BME280;53766;50.280;19.160;2023-03-11T02:17:45;95806.56;;;17.84;45.48
66857;BME280;53766;50.280;19.160;2023-03-11T02:20:15;95808.13;;;17.85;45.44
66857;BME280;53766;50.280;19.160;2023-03-11T02:22:47;95808.13;;;17.85;45.44
66857;BME280;53766;50.280;19.160;2023-03-11T02:27:56;95801.22;;;17.84;45.34
66857;BME280;53766;50.280;19.160;2023-03-11T02:30:26;95810.25;;;17.83;45.50
66857;BME280;53766;50.280;19.160;2023-03-11T02:32:55;95810.25;;;17.83;45.44
66857;BME280;53766;50.280;19.160;2023-03-11T02:35:23;95804.94;;;17.83;45.51
66857;BME280;53766;50.280;19.160;2023-03-11T02:37:52;95807.59;;;17.83;45.49
66857;BME280;53766;50.280;19.160;2023-03-11T02:42:53;95812.66;;;17.84;45.59
66857;BME280;53766;50.280;19.160;2023-03-11T02:45:24;95806.56;;;17.84;45.49
66857;BME280;53766;50.280;19.160;2023-03-11T02:47:54;95819.06;;;17.83;45.51
66857;BME280;53766;50.280;19.160;2023-03-11T02:50:23;95818.25;;;17.83;45.52
66857;BME280;53766;50.280;19.160;2023-03-11T02:52:51;95810.25;;;17.83;45.70
66857;BME280;53766;50.280;19.160;2023-03-11T02:55:19;95820.91;;;17.83;45.42
66857;BME280;53766;50.280;19.160;2023-03-11T02:57:47;95816.66;;;17.82;45.42
66857;BME280;53766;50.280;19.160;2023-03-11T03:00:16;95824.66;;;17.82;45.62
66857;BME280;53766;50.280;19.160;2023-03-11T03:02:45;95823.84;;;17.81;45.42
66857;BME280;53766;50.280;19.160;2023-03-11T03:05:12;95839.81;;;17.81;45.55
66857;BME280;53766;50.280;19.160;2023-03-11T03:07:40;95829.97;;;17.82;45.63
66857;BME280;53766;50.280;19.160;2023-03-11T03:10:09;95824.66;;;17.82;45.43
66857;BME280;53766;50.280;19.160;2023-03-11T03:12:36;95833.66;;;17.81;45.55
66857;BME280;53766;50.280;19.160;2023-03-11T03:15:04;95829.16;;;17.81;45.54
66857;BME280;53766;50.280;19.160;2023-03-11T03:17:32;95827.53;;;17.80;45.54
66857;BME280;53766;50.280;19.160;2023-03-11T03:20:00;95829.41;;;17.80;45.63
66857;BME280;53766;50.280;19.160;2023-03-11T03:22:27;95833.66;;;17.81;45.57
66857;BME280;53766;50.280;19.160;2023-03-11T03:24:56;95838.97;;;17.81;45.56
66857;BME280;53766;50.280;19.160;2023-03-11T03:27:23;95841.09;;;17.79;45.59
66857;BME280;53766;50.280;19.160;2023-03-11T03:29:51;95841.94;;;17.79;45.62
66857;BME280;53766;50.280;19.160;2023-03-11T03:32:18;95847.25;;;17.79;45.61
66857;BME280;53766;50.280;19.160;2023-03-11T03:34:46;95841.09;;;17.79;45.67
66857;BME280;53766;50.280;19.160;2023-03-11T03:37:13;95845.63;;;17.78;45.59
66857;BME280;53766;50.280;19.160;2023-03-11T03:39:41;95831.53;;;17.78;45.57
66857;BME280;53766;50.280;19.160;2023-03-11T03:42:08;95827.25;;;17.77;45.53
66857;BME280;53766;50.280;19.160;2023-03-11T03:44:35;95843.22;;;17.77;45.60
66857;BME280;53766;50.280;19.160;2023-03-11T03:47:03;95837.91;;;17.77;45.61
66857;BME280;53766;50.280;19.160;2023-03-11T03:49:30;95842.44;;;17.76;45.44
66857;BME280;53766;50.280;19.160;2023-03-11T03:51:58;95845.88;;;17.77;45.48
66857;BME280;53766;50.280;19.160;2023-03-11T03:54:25;95840.06;;;17.75;45.55
66857;BME280;53766;50.280;19.160;2023-03-11T03:56:52;95850.72;;;17.75;45.48
66857;BME280;53766;50.280;19.160;2023-03-11T03:59:20;95849.09;;;17.74;45.58
66857;BME280;53766;50.280;19.160;2023-03-11T04:01:47;95854.41;;;17.74;45.56
66857;BME280;53766;50.280;19.160;2023-03-11T04:04:15;95837.41;;;17.75;45.38
66857;BME280;53766;50.280;19.160;2023-03-11T04:06:42;95850.97;;;17.73;45.60
66857;BME280;53766;50.280;19.160;2023-03-11T04:09:10;95847.50;;;17.73;45.45
66857;BME280;53766;50.280;19.160;2023-03-11T04:11:38;95842.19;;;17.73;45.59
66857;BME280;53766;50.280;19.160;2023-03-11T04:14:06;95836.84;;;17.73;45.61
66857;BME280;53766;50.280;19.160;2023-03-11T04:16:33;95837.91;;;17.72;45.51
66857;BME280;53766;50.280;19.160;2023-03-11T04:19:01;95842.44;;;17.71;45.47
66857;BME280;53766;50.280;19.160;2023-03-11T04:21:29;95842.44;;;17.71;45.46
66857;BME280;53766;50.280;19.160;2023-03-11T04:23:57;95847.75;;;17.71;45.53
66857;BME280;53766;50.280;19.160;2023-03-11T04:26:24;95844.31;;;17.71;45.50
66857;BME280;53766;50.280;19.160;2023-03-11T04:28:52;95849.63;;;17.71;45.60
66857;BME280;53766;50.280;19.160;2023-03-11T04:31:19;95854.94;;;17.71;45.58
66857;BME280;53766;50.280;19.160;2023-03-11T04:33:47;95849.63;;;17.71;45.43
66857;BME280;53766;50.280;19.160;2023-03-11T04:36:14;95852.28;;;17.71;45.59
66857;BME280;53766;50.280;19.160;2023-03-11T04:38:42;95855.19;;;17.69;45.56
66857;BME280;53766;50.280;19.160;2023-03-11T04:41:09;95865.59;;;17.71;45.57
66857;BME280;53766;50.280;19.160;2023-03-11T04:43:36;95863.97;;;17.69;45.56
66857;BME280;53766;50.280;19.160;2023-03-11T04:46:04;95861.31;;;17.69;45.46
66857;BME280;53766;50.280;19.160;2023-03-11T04:48:32;95850.66;;;17.69;45.48
66857;BME280;53766;50.280;19.160;2023-03-11T04:51:00;95851.75;;;17.68;45.55
66857;BME280;53766;50.280;19.160;2023-03-11T04:53:27;95853.34;;;17.69;45.47
66857;BME280;53766;50.280;19.160;2023-03-11T04:55:54;95855.44;;;17.67;45.60
66857;BME280;53766;50.280;19.160;2023-03-11T04:58:23;95863.44;;;17.67;45.64
66857;BME280;53766;50.280;19.160;2023-03-11T05:00:51;95859.19;;;17.66;45.62
66857;BME280;53766;50.280;19.160;2023-03-11T05:03:19;95865.06;;;17.68;45.65
66857;BME280;53766;50.280;19.160;2023-03-11T05:05:46;95859.97;;;17.67;45.58
66857;BME280;53766;50.280;19.160;2023-03-11T05:08:14;95868.22;;;17.65;45.67
66857;BME280;53766;50.280;19.160;2023-03-11T05:10:41;95863.72;;;17.66;45.64
66857;BME280;53766;50.280;19.160;2023-03-11T05:13:09;95869.03;;;17.66;45.53
66857;BME280;53766;50.280;19.160;2023-03-11T05:15:36;95868.22;;;17.65;45.48
66857;BME280;53766;50.280;19.160;2023-03-11T05:18:04;95873.53;;;17.65;45.71
66857;BME280;53766;50.280;19.160;2023-03-11T05:20:31;95873.53;;;17.65;45.52
66857;BME280;53766;50.280;19.160;2023-03-11T05:22:59;95877.28;;;17.64;45.66
66857;BME280;53766;50.280;19.160;2023-03-11T05:25:26;95883.66;;;17.63;45.60
66857;BME280;53766;50.280;19.160;2023-03-11T05:27:54;95887.94;;;17.64;45.52
66857;BME280;53766;50.280;19.160;2023-03-11T05:30:21;95890.06;;;17.62;45.79
66857;BME280;53766;50.280;19.160;2023-03-11T05:32:49;95895.38;;;17.62;45.57
66857;BME280;53766;50.280;19.160;2023-03-11T05:35:17;95891.63;;;17.63;45.59
66857;BME280;53766;50.280;19.160;2023-03-11T05:37:44;95900.69;;;17.62;45.74
66857;BME280;53766;50.280;19.160;2023-03-11T05:40:12;95901.75;;;17.61;45.78
66857;BME280;53766;50.280;19.160;2023-03-11T05:42:39;95897.50;;;17.60;45.56
66857;BME280;53766;50.280;19.160;2023-03-11T05:45:08;95899.06;;;17.61;45.68
66857;BME280;53766;50.280;19.160;2023-03-11T05:47:36;95908.13;;;17.60;45.59
66857;BME280;53766;50.280;19.160;2023-03-11T05:50:04;95913.47;;;17.60;45.56
66857;BME280;53766;50.280;19.160;2023-03-11T05:52:32;95918.78;;;17.60;45.66
66857;BME280;53766;50.280;19.160;2023-03-11T05:55:00;95921.44;;;17.60;45.59
66857;BME280;53766;50.280;19.160;2023-03-11T05:57:28;95935.00;;;17.59;45.68
66857;BME280;53766;50.280;19.160;2023-03-11T05:59:55;95933.13;;;17.59;45.68
66857;BME280;53766;50.280;19.160;2023-03-11T06:02:23;95952.59;;;17.60;45.57
66857;BME280;53766;50.280;19.160;2023-03-11T06:04:50;95962.41;;;17.59;45.39
66857;BME280;53766;50.280;19.160;2023-03-11T06:07:18;95954.44;;;17.59;45.53
66857;BME280;53766;50.280;19.160;2023-03-11T06:09:45;95969.59;;;17.59;45.44
66857;BME280;53766;50.280;19.160;2023-03-11T06:12:13;95972.53;;;17.57;45.63
66857;BME280;53766;50.280;19.160;2023-03-11T06:14:41;95975.19;;;17.57;45.62
66857;BME280;53766;50.280;19.160;2023-03-11T06:17:09;95978.91;;;17.56;45.63
66857;BME280;53766;50.280;19.160;2023-03-11T06:19:36;95986.09;;;17.56;45.70
66857;BME280;53766;50.280;19.160;2023-03-11T06:22:03;95986.88;;;17.56;45.46
66857;BME280;53766;50.280;19.160;2023-03-11T06:24:31;95998.63;;;17.55;45.56
66857;BME280;53766;50.280;19.160;2023-03-11T06:26:59;96001.28;;;17.55;45.60
66857;BME280;53766;50.280;19.160;2023-03-11T06:29:26;96006.59;;;17.55;45.48
66857;BME280;53766;50.280;19.160;2023-03-11T06:31:55;96019.34;;;17.53;45.73
66857;BME280;53766;50.280;19.160;2023-03-11T06:34:22;96020.16;;;17.54;45.74
66857;BME280;53766;50.280;19.160;2023-03-11T06:36:50;96030.00;;;17.53;45.69
66857;BME280;53766;50.280;19.160;2023-03-11T06:39:17;96028.38;;;17.52;45.64
66857;BME280;53766;50.280;19.160;2023-03-11T06:41:45;96045.97;;;17.53;45.58
66857;BME280;53766;50.280;19.160;2023-03-11T06:44:12;96036.13;;;17.54;45.47
66857;BME280;53766;50.280;19.160;2023-03-11T06:46:40;96050.47;;;17.53;45.64
66857;BME280;53766;50.280;19.160;2023-03-11T06:49:07;96049.66;;;17.52;45.68
66857;BME280;53766;50.280;19.160;2023-03-11T06:51:35;96049.66;;;17.52;45.67
66857;BME280;53766;50.280;19.160;2023-03-11T06:54:02;96048.88;;;17.52;45.67
66857;BME280;53766;50.280;19.160;2023-03-11T06:56:30;96053.41;;;17.51;45.65
66857;BME280;53766;50.280;19.160;2023-03-11T06:58:58;96057.09;;;17.50;45.69
66857;BME280;53766;50.280;19.160;2023-03-11T07:01:27;96065.63;;;17.52;45.67
66857;BME280;53766;50.280;19.160;2023-03-11T07:03:55;96072.03;;;17.51;45.69
66857;BME280;53766;50.280;19.160;2023-03-11T07:06:25;96071.47;;;17.49;45.54
66857;BME280;53766;50.280;19.160;2023-03-11T07:08:53;96073.88;;;17.51;45.50
66857;BME280;53766;50.280;19.160;2023-03-11T07:11:23;96072.28;;;17.50;45.57
66857;BME280;53766;50.280;19.160;2023-03-11T07:13:52;96075.72;;;17.50;45.56
66857;BME280;53766;50.280;19.160;2023-03-11T07:16:25;96084.50;;;17.51;45.65
66857;BME280;53766;50.280;19.160;2023-03-11T07:18:55;96083.72;;;17.50;45.56
66857;BME280;53766;50.280;19.160;2023-03-11T07:21:26;96094.38;;;17.50;45.60
66857;BME280;53766;50.280;19.160;2023-03-11T07:23:55;96102.34;;;17.50;45.53
66857;BME280;53766;50.280;19.160;2023-03-11T07:26:24;96103.41;;;17.49;45.57
66857;BME280;53766;50.280;19.160;2023-03-11T07:28:53;96099.69;;;17.50;45.53
66857;BME280;53766;50.280;19.160;2023-03-11T07:31:24;96100.75;;;17.49;45.48
66857;BME280;53766;50.280;19.160;2023-03-11T07:33:52;96112.44;;;17.48;45.57
66857;BME280;53766;50.280;19.160;2023-03-11T07:36:22;96115.38;;;17.46;45.56
66857;BME280;53766;50.280;19.160;2023-03-11T07:39:02;96116.16;;;17.47;45.42
66857;BME280;53766;50.280;19.160;2023-03-11T07:41:33;96117.75;;;17.48;45.55
66857;BME280;53766;50.280;19.160;2023-03-11T07:44:03;96113.50;;;17.47;45.48
66857;BME280;53766;50.280;19.160;2023-03-11T07:46:31;96114.56;;;17.46;45.48
66857;BME280;53766;50.280;19.160;2023-03-11T07:48:59;96121.50;;;17.47;45.56
66857;BME280;53766;50.280;19.160;2023-03-11T07:51:30;96119.88;;;17.46;45.63
66857;BME280;53766;50.280;19.160;2023-03-11T07:53:59;96125.19;;;17.46;45.69
66857;BME280;53766;50.280;19.160;2023-03-11T07:56:31;96128.94;;;17.45;45.63
66857;BME280;53766;50.280;19.160;2023-03-11T07:58:59;96136.66;;;17.46;45.70
66857;BME280;53766;50.280;19.160;2023-03-11T08:01:29;96135.84;;;17.46;45.93
66857;BME280;53766;50.280;19.160;2023-03-11T08:04:04;96144.91;;;17.45;45.83
66857;BME280;53766;50.280;19.160;2023-03-11T08:06:34;96144.09;;;17.44;45.94
66857;BME280;53766;50.280;19.160;2023-03-11T08:09:07;96136.91;;;17.45;45.69
66857;BME280;53766;50.280;19.160;2023-03-11T08:11:35;96135.84;;;17.46;45.62
66857;BME280;53766;50.280;19.160;2023-03-11T08:14:03;96138.50;;;17.46;45.60
66857;BME280;53766;50.280;19.160;2023-03-11T08:16:31;96147.31;;;17.46;45.71
66857;BME280;53766;50.280;19.160;2023-03-11T08:18:59;96152.88;;;17.45;45.74
66857;BME280;53766;50.280;19.160;2023-03-11T08:21:28;96159.25;;;17.44;45.87
66857;BME280;53766;50.280;19.160;2023-03-11T08:23:59;96159.53;;;17.47;45.87
66857;BME280;53766;50.280;19.160;2023-03-11T08:26:29;96164.06;;;17.47;46.00
66857;BME280;53766;50.280;19.160;2023-03-11T08:28:57;96167.78;;;17.46;45.97
66857;BME280;53766;50.280;19.160;2023-03-11T08:31:28;96165.66;;;17.48;45.85
66857;BME280;53766;50.280;19.160;2023-03-11T08:34:01;96159.78;;;17.46;45.88
66857;BME280;53766;50.280;19.160;2023-03-11T08:36:32;96173.09;;;17.46;45.83
66857;BME280;53766;50.280;19.160;2023-03-11T08:39:01;96175.19;;;17.44;45.98
66857;BME280;53766;50.280;19.160;2023-03-11T08:41:29;96174.41;;;17.43;45.93
66857;BME280;53766;50.280;19.160;2023-03-11T08:43:57;96184.25;;;17.43;46.03
66857;BME280;53766;50.280;19.160;2023-03-11T08:46:31;96189.56;;;17.43;46.05
66857;BME280;53766;50.280;19.160;2023-03-11T08:48:59;96185.84;;;17.44;46.14
66857;BME280;53766;50.280;19.160;2023-03-11T08:51:31;96187.97;;;17.42;46.07
66857;BME280;53766;50.280;19.160;2023-03-11T08:53:59;96191.69;;;17.41;46.04
66857;BME280;53766;50.280;19.160;2023-03-11T08:56:28;96188.47;;;17.39;45.93
66857;BME280;53766;50.280;19.160;2023-03-11T08:58:55;96189.00;;;17.36;45.82
66857;BME280;53766;50.280;19.160;2023-03-11T09:01:23;96194.31;;;17.36;45.24
66857;BME280;53766;50.280;19.160;2023-03-11T09:03:51;96201.72;;;17.34;44.93
66857;BME280;53766;50.280;19.160;2023-03-11T09:06:20;96196.41;;;17.34;44.83
66857;BME280;53766;50.280;19.160;2023-03-11T09:08:47;96219.28;;;17.35;44.67
66857;BME280;53766;50.280;19.160;2023-03-11T09:11:16;96214.47;;;17.32;44.62
66857;BME280;53766;50.280;19.160;2023-03-11T09:13:45;96219.81;;;17.32;44.61
66857;BME280;53766;50.280;19.160;2023-03-11T09:16:15;96219.00;;;17.31;44.44
66857;BME280;53766;50.280;19.160;2023-03-11T09:18:43;96216.06;;;17.33;44.73
66857;BME280;53766;50.280;19.160;2023-03-11T09:21:11;96229.38;;;17.33;44.74
66857;BME280;53766;50.280;19.160;2023-03-11T09:23:39;96232.34;;;17.36;44.89
66857;BME280;53766;50.280;19.160;2023-03-11T09:26:11;96243.78;;;17.37;44.93
66857;BME280;53766;50.280;19.160;2023-03-11T09:28:39;96243.31;;;17.40;44.89
66857;BME280;53766;50.280;19.160;2023-03-11T09:31:07;96248.63;;;17.40;45.03
66857;BME280;53766;50.280;19.160;2023-03-11T09:33:38;96260.06;;;17.40;45.06
66857;BME280;53766;50.280;19.160;2023-03-11T09:36:07;96255.53;;;17.41;45.29
66857;BME280;53766;50.280;19.160;2023-03-11T09:38:34;96249.72;;;17.44;45.44
66857;BME280;53766;50.280;19.160;2023-03-11T09:52:13;96277.22;;;17.55;46.25
66857;BME280;53766;50.280;19.160;2023-03-11T09:54:44;96277.22;;;17.55;46.22
66857;BME280;53766;50.280;19.160;2023-03-11T09:57:25;96287.63;;;17.56;46.41
66857;BME280;53766;50.280;19.160;2023-03-11T09:59:55;96283.38;;;17.55;46.64
66857;BME280;53766;50.280;19.160;2023-03-11T10:02:23;96293.19;;;17.55;46.55
66857;BME280;53766;50.280;19.160;2023-03-11T10:05:07;96298.84;;;17.58;46.74
66857;BME280;53766;50.280;19.160;2023-03-11T10:07:40;96293.81;;;17.62;46.97
66857;BME280;53766;50.280;19.160;2023-03-11T10:10:12;96307.41;;;17.65;47.16
66857;BME280;53766;50.280;19.160;2023-03-11T10:13:09;96314.09;;;17.68;47.43
66857;BME280;53766;50.280;19.160;2023-03-11T10:34:14;96351.47;;;17.78;48.38
66857;BME280;53766;50.280;19.160;2023-03-11T10:37:10;96364.56;;;17.80;48.37
66857;BME280;53766;50.280;19.160;2023-03-11T10:39:40;96371.47;;;17.81;48.26
66857;BME280;53766;50.280;19.160;2023-03-11T10:42:13;96381.31;;;17.80;48.25
66857;BME280;53766;50.280;19.160;2023-03-11T10:44:43;96373.13;;;17.82;48.59
66857;BME280;53766;50.280;19.160;2023-03-11T10:47:19;96383.78;;;17.82;48.62
66857;BME280;53766;50.280;19.160;2023-03-11T10:49:48;96388.03;;;17.83;48.75
66857;BME280;53766;50.280;19.160;2023-03-11T10:52:15;96402.19;;;17.83;48.87
66857;BME280;53766;50.280;19.160;2023-03-11T10:54:48;96392.56;;;17.82;48.68
66857;BME280;53766;50.280;19.160;2023-03-11T10:57:27;96403.22;;;17.82;48.88
66857;BME280;53766;50.280;19.160;2023-03-11T10:59:57;96405.09;;;17.82;49.04
66857;BME280;53766;50.280;19.160;2023-03-11T11:02:33;96407.16;;;17.80;48.94
66857;BME280;53766;50.280;19.160;2023-03-11T11:05:47;96415.16;;;17.80;49.01
66857;BME280;53766;50.280;19.160;2023-03-11T11:08:08;96431.13;;;17.80;48.93
66857;BME280;53766;50.280;19.160;2023-03-11T11:10:49;96433.78;;;17.80;49.17
66857;BME280;53766;50.280;19.160;2023-03-11T11:13:26;96436.22;;;17.81;49.24
66857;BME280;53766;50.280;19.160;2023-03-11T11:16:19;96438.88;;;17.81;49.43
66857;BME280;53766;50.280;19.160;2023-03-11T11:18:58;96444.19;;;17.81;49.53
66857;BME280;53766;50.280;19.160;2023-03-11T11:21:33;96460.41;;;17.80;49.14
66857;BME280;53766;50.280;19.160;2023-03-11T11:24:28;96467.31;;;17.81;49.49
66857;BME280;53766;50.280;19.160;2023-03-11T11:27:22;96470.59;;;17.83;49.33
66857;BME280;53766;50.280;19.160;2023-03-11T11:30:15;96465.81;;;17.85;49.60
66857;BME280;53766;50.280;19.160;2023-03-11T11:32:43;96475.44;;;17.86;49.54
66857;BME280;53766;50.280;19.160;2023-03-11T11:35:15;96487.69;;;17.87;49.57
66857;BME280;53766;50.280;19.160;2023-03-11T11:38:00;96496.22;;;17.89;49.69
66857;BME280;53766;50.280;19.160;2023-03-11T11:40:32;96507.94;;;17.88;49.74
66857;BME280;53766;50.280;19.160;2023-03-11T11:43:17;96511.41;;;17.88;49.81
66857;BME280;53766;50.280;19.160;2023-03-11T11:46:01;96526.59;;;17.88;50.09
66857;BME280;53766;50.280;19.160;2023-03-11T11:48:46;96531.41;;;17.91;49.91
66857;BME280;53766;50.280;19.160;2023-03-11T11:51:27;96538.84;;;17.89;50.13
66857;BME280;53766;50.280;19.160;2023-03-11T11:56:36;96565.00;;;17.92;50.04
66857;BME280;53766;50.280;19.160;2023-03-11T11:59:12;96568.69;;;17.91;50.29
66857;BME280;53766;50.280;19.160;2023-03-11T12:02:12;96581.78;;;17.93;50.42
66857;BME280;53766;50.280;19.160;2023-03-11T12:05:24;96583.06;;;17.90;50.29
66857;BME280;53766;50.280;19.160;2023-03-11T12:10:50;96602.97;;;17.87;50.56
66857;BME280;53766;50.280;19.160;2023-03-11T12:13:45;96611.25;;;17.86;50.45
66857;BME280;53766;50.280;19.160;2023-03-11T12:16:46;96620.81;;;17.87;50.58
66857;BME280;53766;50.280;19.160;2023-03-11T12:19:18;96632.28;;;17.87;50.62
66857;BME280;53766;50.280;19.160;2023-03-11T12:25:13;96634.25;;;17.92;50.64
66857;BME280;53766;50.280;19.160;2023-03-11T12:30:53;96651.97;;;17.86;50.62
66857;BME280;53766;50.280;19.160;2023-03-11T12:36:16;96655.44;;;17.87;50.66
66857;BME280;53766;50.280;19.160;2023-03-11T12:38:47;96658.91;;;17.87;50.72
66857;BME280;53766;50.280;19.160;2023-03-11T12:41:32;96665.06;;;17.88;50.62
66857;BME280;53766;50.280;19.160;2023-03-11T12:44:19;96676.97;;;17.85;50.62
66857;BME280;53766;50.280;19.160;2023-03-11T12:49:47;96692.16;;;17.85;50.77
66857;BME280;53766;50.280;19.160;2023-03-11T12:52:18;96698.28;;;17.85;50.82
66857;BME280;53766;50.280;19.160;2023-03-11T12:54:47;96711.88;;;17.84;50.78
66857;BME280;53766;50.280;19.160;2023-03-11T13:10:47;96755.75;;;17.81;50.74
66857;BME280;53766;50.280;19.160;2023-03-11T13:13:37;96772.56;;;17.82;50.80
66857;BME280;53766;50.280;19.160;2023-03-11T13:18:41;96783.63;;;17.79;50.76
66857;BME280;53766;50.280;19.160;2023-03-11T13:29:55;96819.81;;;17.75;50.72
66857;BME280;53766;50.280;19.160;2023-03-11T13:33:18;96824.28;;;17.74;50.69
66857;BME280;53766;50.280;19.160;2023-03-11T13:41:34;96850.59;;;17.71;50.66
66857;BME280;53766;50.280;19.160;2023-03-11T13:44:12;96862.28;;;17.69;50.73
66857;BME280;53766;50.280;19.160;2023-03-11T13:46:41;96864.94;;;17.69;50.52
66857;BME280;53766;50.280;19.160;2023-03-11T13:49:36;96868.19;;;17.72;50.61
66857;BME280;53766;50.280;19.160;2023-03-11T13:52:13;96877.22;;;17.71;50.56
66857;BME280;53766;50.280;19.160;2023-03-11T13:54:43;96870.28;;;17.69;50.58
66857;BME280;53766;50.280;19.160;2023-03-11T13:57:23;96892.88;;;17.67;50.60
66857;BME280;53766;50.280;19.160;2023-03-11T13:59:53;96896.31;;;17.67;50.54
66857;BME280;53766;50.280;19.160;2023-03-11T14:02:25;96905.94;;;17.68;50.53
66857;BME280;53766;50.280;19.160;2023-03-11T14:05:05;96913.34;;;17.66;50.59
66857;BME280;53766;50.280;19.160;2023-03-11T14:07:35;96920.28;;;17.67;50.67
66857;BME280;53766;50.280;19.160;2023-03-11T14:10:25;96920.78;;;17.64;50.66
66857;BME280;53766;50.280;19.160;2023-03-11T14:13:16;96922.06;;;17.62;50.71
66857;BME280;53766;50.280;19.160;2023-03-11T14:16:33;96922.84;;;17.62;50.54
66857;BME280;53766;50.280;19.160;2023-03-11T14:21:13;96939.06;;;17.61;50.71
66857;BME280;53766;50.280;19.160;2023-03-11T14:23:50;96939.84;;;17.61;50.72
66857;BME280;53766;50.280;19.160;2023-03-11T14:26:20;96941.72;;;17.61;50.64
66857;BME280;53766;50.280;19.160;2023-03-11T14:28:50;96956.09;;;17.60;50.64
66857;BME280;53766;50.280;19.160;2023-03-11T14:31:28;96956.88;;;17.60;50.68
66857;BME280;53766;50.280;19.160;2023-03-11T14:34:09;96957.91;;;17.59;50.69
66857;BME280;53766;50.280;19.160;2023-03-11T14:39:33;96974.16;;;17.58;50.63
66857;BME280;53766;50.280;19.160;2023-03-11T14:42:18;96979.56;;;17.63;50.86